createdAt,value
2023-08-07T00:00:13.992Z,0
2023-08-07T00:01:48.000Z,0
2023-08-07T00:02:46.378Z,0
2023-08-07T00:04:20.000Z,0
2023-08-07T00:05:18.764Z,0
2023-08-07T00:06:52.957Z,0
2023-08-07T00:08:09.000Z,0
2023-08-07T00:09:25.000Z,0
2023-08-07T00:10:41.537Z,0
2023-08-07T00:11:57.000Z,0
2023-08-07T00:12:55.922Z,0
2023-08-07T00:14:30.000Z,0
2023-08-07T00:15:46.306Z,0
2023-08-07T00:17:01.000Z,0
2023-08-07T00:18:17.710Z,0
2023-08-07T00:19:32.000Z,0
2023-08-07T00:20:49.000Z,0
2023-08-07T00:22:05.000Z,0
2023-08-07T00:23:21.000Z,0
2023-08-07T00:24:37.000Z,0
2023-08-07T00:25:35.897Z,0
2023-08-07T00:27:10.000Z,0
2023-08-07T00:28:26.291Z,0
2023-08-07T00:29:42.475Z,0
2023-08-07T00:30:58.673Z,0
2023-08-07T00:32:13.878Z,0
2023-08-07T00:33:30.000Z,0
2023-08-07T00:34:46.000Z,0
2023-08-07T00:36:20.000Z,0
2023-08-07T00:37:18.000Z,0
2023-08-07T00:38:34.000Z,0
2023-08-07T00:39:51.000Z,0
2023-08-07T00:41:07.234Z,0
2023-08-07T00:42:23.422Z,0
2023-08-07T00:43:39.000Z,0
2023-08-07T00:44:55.000Z,0
2023-08-07T00:46:12.000Z,0
2023-08-07T00:47:28.000Z,0
2023-08-07T00:48:26.387Z,0
2023-08-07T00:50:00.000Z,0
2023-08-07T00:51:16.000Z,0
2023-08-07T00:53:31.158Z,0
2023-08-07T00:55:04.000Z,0
2023-08-07T00:56:02.582Z,0
2023-08-07T00:58:52.000Z,0
2023-08-07T01:00:09.165Z,0
2023-08-07T01:01:07.353Z,0
2023-08-07T01:02:41.000Z,0
2023-08-07T01:03:57.000Z,0
2023-08-07T01:05:13.933Z,0
2023-08-07T01:06:30.126Z,0
2023-08-07T01:07:46.000Z,0
2023-08-07T01:09:02.000Z,0
2023-08-07T01:10:18.000Z,0
2023-08-07T01:11:34.000Z,0
2023-08-07T01:12:51.000Z,0
2023-08-07T01:14:07.000Z,0
2023-08-07T01:15:23.000Z,0
2023-08-07T01:16:39.671Z,0
2023-08-07T01:17:55.000Z,0
2023-08-07T01:19:12.058Z,0
2023-08-07T01:20:28.000Z,0
2023-08-07T01:21:26.564Z,0
2023-08-07T01:22:59.000Z,0
2023-08-07T01:24:15.976Z,0
2023-08-07T01:25:32.000Z,0
2023-08-07T01:26:48.362Z,0
2023-08-07T01:28:04.000Z,0
2023-08-07T01:29:02.749Z,0
2023-08-07T01:30:36.000Z,0
2023-08-07T01:31:53.000Z,0
2023-08-07T01:33:09.000Z,0
2023-08-07T01:34:07.521Z,0
2023-08-07T01:35:41.714Z,0
2023-08-07T01:36:57.000Z,0
2023-08-07T01:38:14.100Z,0
2023-08-07T01:39:12.294Z,0
2023-08-07T01:41:04.000Z,0
2023-08-07T01:42:02.000Z,0
2023-08-07T01:43:18.000Z,0
2023-08-07T01:44:17.065Z,0
2023-08-07T01:45:50.000Z,0
2023-08-07T01:46:48.468Z,0
2023-08-07T01:48:22.000Z,0
2023-08-07T01:49:38.000Z,0
2023-08-07T01:50:55.048Z,0
2023-08-07T01:51:53.241Z,0
2023-08-07T01:53:27.435Z,0
2023-08-07T01:54:43.628Z,0
2023-08-07T01:55:59.822Z,0
2023-08-07T01:56:58.015Z,0
2023-08-07T01:58:32.208Z,0
2023-08-07T01:59:30.401Z,0
2023-08-07T02:01:04.000Z,0
2023-08-07T02:02:20.000Z,0
2023-08-07T02:03:36.000Z,0
2023-08-07T02:04:53.000Z,0
2023-08-07T02:06:09.000Z,0
2023-08-07T02:07:25.560Z,0
2023-08-07T02:08:41.000Z,0
2023-08-07T02:09:39.947Z,0
2023-08-07T02:11:14.140Z,0
2023-08-07T02:12:12.333Z,0
2023-08-07T02:13:46.526Z,0
2023-08-07T02:15:02.000Z,0
2023-08-07T02:16:18.000Z,0
2023-08-07T02:17:35.000Z,0
2023-08-07T02:18:51.000Z,0
2023-08-07T02:20:07.000Z,0
2023-08-07T02:21:23.000Z,0
2023-08-07T02:22:39.000Z,0
2023-08-07T02:23:56.000Z,0
2023-08-07T02:24:54.263Z,0
2023-08-07T02:26:28.000Z,0
2023-08-07T02:27:44.000Z,0
2023-08-07T02:29:00.000Z,0
2023-08-07T02:30:17.000Z,0
2023-08-07T02:31:33.000Z,0
2023-08-07T02:32:49.000Z,0
2023-08-07T02:34:05.730Z,0
2023-08-07T02:35:03.979Z,0
2023-08-07T02:36:37.000Z,0
2023-08-07T02:37:53.000Z,0
2023-08-07T02:39:09.634Z,0
2023-08-07T02:40:25.000Z,0
2023-08-07T02:41:42.000Z,0
2023-08-07T02:42:58.213Z,0
2023-08-07T02:44:14.000Z,0
2023-08-07T02:45:30.000Z,0
2023-08-07T02:46:46.000Z,0
2023-08-07T02:48:02.000Z,0
2023-08-07T02:49:19.189Z,0
2023-08-07T02:50:34.388Z,0
2023-08-07T02:51:32.580Z,0
2023-08-07T02:53:06.000Z,0
2023-08-07T02:54:22.967Z,0
2023-08-07T02:55:39.160Z,0
2023-08-07T02:56:55.000Z,0
2023-08-07T02:58:11.000Z,0
2023-08-07T02:59:27.000Z,0
2023-08-07T03:00:43.000Z,0
2023-08-07T03:02:00.135Z,0
2023-08-07T03:03:16.000Z,0
2023-08-07T03:04:32.661Z,0
2023-08-07T03:05:49.000Z,4
2023-08-07T03:07:05.000Z,4
2023-08-07T03:08:21.000Z,4
2023-08-07T03:09:19.566Z,0
2023-08-07T03:10:53.000Z,4
2023-08-07T03:12:09.952Z,4
2023-08-07T03:13:26.000Z,8
2023-08-07T03:14:42.343Z,4
2023-08-07T03:15:58.532Z,8
2023-08-07T03:16:56.725Z,8
2023-08-07T03:18:30.000Z,8
2023-08-07T03:19:47.111Z,8
2023-08-07T03:21:03.000Z,12
2023-08-07T03:22:19.512Z,12
2023-08-07T03:23:35.000Z,16
2023-08-07T03:24:51.000Z,16
2023-08-07T03:26:08.000Z,20
2023-08-07T03:27:24.292Z,24
2023-08-07T03:28:40.000Z,28
2023-08-07T03:29:56.668Z,28
2023-08-07T03:31:13.000Z,36
2023-08-07T03:32:29.000Z,40
2023-08-07T03:33:45.000Z,40
2023-08-07T03:35:01.598Z,44
2023-08-07T03:36:17.000Z,52
2023-08-07T03:37:33.961Z,56
2023-08-07T03:38:50.154Z,68
2023-08-07T03:40:06.000Z,76
2023-08-07T03:41:22.000Z,84
2023-08-07T03:42:20.733Z,92
2023-08-07T03:43:54.926Z,100
2023-08-07T03:45:11.000Z,112
2023-08-07T03:46:27.000Z,124
2023-08-07T03:47:43.505Z,140
2023-08-07T03:48:59.000Z,148
2023-08-07T03:50:15.000Z,164
2023-08-07T03:51:32.084Z,184
2023-08-07T03:52:48.000Z,200
2023-08-07T03:54:04.000Z,216
2023-08-07T03:55:02.663Z,236
2023-08-07T03:56:37.004Z,248
2023-08-07T03:57:53.000Z,260
2023-08-07T03:59:09.391Z,272
2023-08-07T04:00:07.584Z,300
2023-08-07T04:01:41.000Z,324
2023-08-07T04:02:57.000Z,348
2023-08-07T04:04:14.163Z,360
2023-08-07T04:05:12.356Z,376
2023-08-07T04:06:46.549Z,384
2023-08-07T04:07:44.742Z,404
2023-08-07T04:09:18.936Z,428
2023-08-07T04:10:35.000Z,468
2023-08-07T04:11:51.322Z,508
2023-08-07T04:12:49.515Z,556
2023-08-07T04:14:23.707Z,608
2023-08-07T04:15:39.000Z,680
2023-08-07T04:16:56.000Z,756
2023-08-07T04:18:12.287Z,760
2023-08-07T04:19:28.480Z,804
2023-08-07T04:20:44.000Z,864
2023-08-07T04:22:00.882Z,892
2023-08-07T04:23:17.059Z,940
2023-08-07T04:24:33.000Z,984
2023-08-07T04:25:49.445Z,1040
2023-08-07T04:27:05.638Z,1072
2023-08-07T04:28:21.891Z,1076
2023-08-07T04:29:38.000Z,1092
2023-08-07T04:30:36.390Z,1060
2023-08-07T04:32:10.000Z,1120
2023-08-07T04:33:26.889Z,1212
2023-08-07T04:34:25.138Z,1272
2023-08-07T04:35:59.000Z,1340
2023-08-07T04:37:15.000Z,1432
2023-08-07T04:38:31.000Z,1364
2023-08-07T04:39:48.000Z,1436
2023-08-07T04:41:04.000Z,1472
2023-08-07T04:42:20.650Z,1428
2023-08-07T04:43:35.902Z,1424
2023-08-07T04:44:52.000Z,1412
2023-08-07T04:45:50.289Z,1460
2023-08-07T04:47:24.000Z,1480
2023-08-07T04:48:22.675Z,1508
2023-08-07T04:49:56.868Z,1540
2023-08-07T04:51:13.069Z,1588
2023-08-07T04:52:29.375Z,1656
2023-08-07T04:53:45.000Z,1816
2023-08-07T04:55:01.000Z,1832
2023-08-07T04:56:17.977Z,1972
2023-08-07T04:57:34.000Z,1988
2023-08-07T04:58:50.339Z,2056
2023-08-07T05:00:06.532Z,2028
2023-08-07T05:01:22.725Z,2056
2023-08-07T05:02:38.000Z,1996
2023-08-07T05:03:55.000Z,2132
2023-08-07T05:05:11.305Z,2148
2023-08-07T05:06:27.000Z,2244
2023-08-07T05:07:43.691Z,2144
2023-08-07T05:08:59.905Z,2356
2023-08-07T05:10:16.000Z,2100
2023-08-07T05:11:32.000Z,2032
2023-08-07T05:12:48.000Z,1984
2023-08-07T05:14:04.657Z,1960
2023-08-07T05:15:20.000Z,1976
2023-08-07T05:16:19.043Z,1988
2023-08-07T05:17:53.000Z,1972
2023-08-07T05:19:09.000Z,1988
2023-08-07T05:20:25.622Z,1972
2023-08-07T05:21:41.000Z,1956
2023-08-07T05:22:58.009Z,1996
2023-08-07T05:24:14.202Z,2000
2023-08-07T05:25:30.000Z,2108
2023-08-07T05:26:46.000Z,2080
2023-08-07T05:28:02.781Z,2140
2023-08-07T05:29:18.974Z,2168
2023-08-07T05:30:35.167Z,2308
2023-08-07T05:31:51.000Z,2328
2023-08-07T05:33:07.000Z,2420
2023-08-07T05:34:05.747Z,2436
2023-08-07T05:35:39.000Z,2512
2023-08-07T05:36:56.000Z,2556
2023-08-07T05:38:12.325Z,2492
2023-08-07T05:39:28.000Z,2512
2023-08-07T05:40:44.000Z,2592
2023-08-07T05:41:43.076Z,2596
2023-08-07T05:43:17.000Z,2488
2023-08-07T05:44:33.575Z,2528
2023-08-07T05:45:49.000Z,2644
2023-08-07T05:47:06.000Z,2812
2023-08-07T05:48:22.347Z,2740
2023-08-07T05:49:38.593Z,2836
2023-08-07T05:50:53.000Z,2932
2023-08-07T05:52:10.038Z,2896
2023-08-07T05:53:26.000Z,2820
2023-08-07T05:54:42.000Z,2676
2023-08-07T05:55:58.000Z,2828
2023-08-07T05:57:14.811Z,3108
2023-08-07T05:58:13.004Z,3080
2023-08-07T05:59:47.000Z,3188
2023-08-07T06:01:03.000Z,3408
2023-08-07T06:02:19.582Z,3532
2023-08-07T06:03:17.775Z,3476
2023-08-07T06:04:51.969Z,3548
2023-08-07T06:06:08.184Z,3588
2023-08-07T06:07:24.000Z,3600
2023-08-07T06:08:40.000Z,3448
2023-08-07T06:11:12.000Z,3512
2023-08-07T06:12:29.000Z,3516
2023-08-07T06:13:45.319Z,3364
2023-08-07T06:15:01.000Z,3188
2023-08-07T06:15:59.706Z,3152
2023-08-07T06:17:32.000Z,3268
2023-08-07T06:18:49.141Z,3408
2023-08-07T06:20:05.313Z,3520
2023-08-07T06:21:21.000Z,3644
2023-08-07T06:22:37.000Z,3700
2023-08-07T06:23:35.893Z,3548
2023-08-07T06:25:10.000Z,3312
2023-08-07T06:26:26.000Z,3384
2023-08-07T06:27:42.474Z,3504
2023-08-07T06:28:58.000Z,3480
2023-08-07T06:30:14.861Z,3660
2023-08-07T06:31:31.054Z,3796
2023-08-07T06:32:47.263Z,3840
2023-08-07T06:34:03.000Z,3804
2023-08-07T06:35:19.000Z,3816
2023-08-07T06:36:17.829Z,3824
2023-08-07T06:37:52.000Z,3788
2023-08-07T06:39:08.218Z,3756
2023-08-07T06:40:24.437Z,3800
2023-08-07T06:41:40.000Z,3932
2023-08-07T06:42:56.000Z,4028
2023-08-07T06:44:13.000Z,4064
2023-08-07T06:45:29.000Z,4116
2023-08-07T06:46:45.401Z,4200
2023-08-07T06:48:00.000Z,4236
2023-08-07T06:48:58.802Z,4256
2023-08-07T06:50:32.998Z,4316
2023-08-07T06:51:49.000Z,4360
2023-08-07T06:53:05.388Z,4456
2023-08-07T06:54:21.000Z,4448
2023-08-07T06:55:37.786Z,4436
2023-08-07T06:56:35.973Z,4464
2023-08-07T06:58:10.000Z,4448
2023-08-07T06:59:26.000Z,4528
2023-08-07T07:00:42.000Z,4600
2023-08-07T07:01:58.000Z,4644
2023-08-07T07:03:14.000Z,4712
2023-08-07T07:04:31.000Z,5068
2023-08-07T07:05:47.000Z,4840
2023-08-07T07:07:03.552Z,4824
2023-08-07T07:08:19.852Z,4944
2023-08-07T07:09:18.047Z,5080
2023-08-07T07:10:52.243Z,5172
2023-08-07T07:12:08.449Z,5240
2023-08-07T07:13:24.634Z,5324
2023-08-07T07:14:22.829Z,5380
2023-08-07T07:15:57.024Z,5360
2023-08-07T07:17:13.219Z,5404
2023-08-07T07:18:29.000Z,5420
2023-08-07T07:19:45.000Z,5264
2023-08-07T07:21:01.807Z,5592
2023-08-07T07:22:18.002Z,5136
2023-08-07T07:23:34.000Z,5340
2023-08-07T07:24:32.393Z,5392
2023-08-07T07:26:05.000Z,5064
2023-08-07T07:27:03.811Z,5192
2023-08-07T07:28:38.000Z,5140
2023-08-07T07:29:54.203Z,5112
2023-08-07T07:31:10.399Z,5232
2023-08-07T07:32:08.594Z,5220
2023-08-07T07:33:42.790Z,5192
2023-08-07T07:34:59.000Z,5244
2023-08-07T07:36:15.000Z,5292
2023-08-07T07:37:31.387Z,5308
2023-08-07T07:38:46.000Z,5172
2023-08-07T07:40:02.000Z,5208
2023-08-07T07:41:18.990Z,5032
2023-08-07T07:42:35.000Z,5248
2023-08-07T07:43:51.000Z,5192
2023-08-07T07:45:07.000Z,5348
2023-08-07T07:46:23.761Z,5444
2023-08-07T07:47:39.956Z,5464
2023-08-07T07:48:56.000Z,5468
2023-08-07T07:50:12.359Z,5092
2023-08-07T07:51:28.000Z,5040
2023-08-07T07:52:44.761Z,5084
2023-08-07T07:53:59.000Z,5280
2023-08-07T07:55:16.000Z,5240
2023-08-07T07:56:32.000Z,5636
2023-08-07T07:57:48.000Z,5528
2023-08-07T07:59:04.759Z,5288
2023-08-07T08:00:02.939Z,5052
2023-08-07T08:01:37.000Z,4996
2023-08-07T08:02:53.344Z,4788
2023-08-07T08:04:09.672Z,4564
2023-08-07T08:05:07.844Z,4452
2023-08-07T08:06:42.000Z,4252
2023-08-07T08:07:58.000Z,4396
2023-08-07T08:09:14.431Z,4544
2023-08-07T08:10:30.000Z,4524
2023-08-07T08:11:46.833Z,4388
2023-08-07T08:12:45.018Z,4284
2023-08-07T08:14:19.000Z,3972
2023-08-07T08:15:35.422Z,3656
2023-08-07T08:16:51.000Z,3568
2023-08-07T08:18:07.813Z,3732
2023-08-07T08:19:23.997Z,4156
2023-08-07T08:20:40.000Z,4396
2023-08-07T08:21:56.389Z,4192
2023-08-07T08:23:12.610Z,4004
2023-08-07T08:24:28.780Z,4032
2023-08-07T08:25:26.975Z,3664
2023-08-07T08:27:00.000Z,3408
2023-08-07T08:27:58.382Z,2940
2023-08-07T08:29:32.578Z,2628
2023-08-07T08:30:48.789Z,2900
2023-08-07T08:32:04.000Z,3068
2023-08-07T08:33:21.000Z,3228
2023-08-07T08:34:37.000Z,3736
2023-08-07T08:35:35.557Z,4236
2023-08-07T08:37:09.767Z,4388
2023-08-07T08:38:07.948Z,4600
2023-08-07T08:39:42.144Z,4912
2023-08-07T08:40:58.340Z,5248
2023-08-07T08:42:14.536Z,5116
2023-08-07T08:43:30.000Z,5248
2023-08-07T08:44:46.947Z,5964
2023-08-07T08:46:02.138Z,6752
2023-08-07T08:47:18.335Z,6844
2023-08-07T08:48:16.530Z,6996
2023-08-07T08:49:50.726Z,6876
2023-08-07T08:51:06.931Z,6812
2023-08-07T08:52:23.118Z,6660
2023-08-07T08:53:21.313Z,6376
2023-08-07T08:54:55.000Z,6068
2023-08-07T08:56:11.717Z,5696
2023-08-07T08:57:27.901Z,5404
2023-08-07T08:58:44.096Z,5252
2023-08-07T09:00:00.310Z,4612
2023-08-07T09:00:58.488Z,4316
2023-08-07T09:02:32.684Z,4500
2023-08-07T09:03:48.892Z,4732
2023-08-07T09:05:05.075Z,5380
2023-08-07T09:06:21.281Z,5928
2023-08-07T09:07:37.481Z,6260
2023-08-07T09:08:34.678Z,6092
2023-08-07T09:10:08.874Z,6036
2023-08-07T09:11:25.070Z,5708
2023-08-07T09:12:41.266Z,5000
2023-08-07T09:13:39.461Z,4156
2023-08-07T09:15:13.657Z,3664
2023-08-07T09:16:29.852Z,4052
2023-08-07T09:17:46.047Z,4776
2023-08-07T09:19:02.264Z,5740
2023-08-07T09:20:18.439Z,6680
2023-08-07T09:21:16.634Z,7336
2023-08-07T09:22:50.856Z,7876
2023-08-07T09:24:07.025Z,8180
2023-08-07T09:25:23.221Z,8216
2023-08-07T09:26:39.427Z,8164
2023-08-07T09:27:37.613Z,7920
2023-08-07T09:29:10.838Z,7836
2023-08-07T09:30:27.020Z,7748
2023-08-07T09:31:43.232Z,7704
2023-08-07T09:32:59.412Z,7348
2023-08-07T09:34:15.617Z,7196
2023-08-07T09:35:31.817Z,6832
2023-08-07T09:36:47.999Z,6184
2023-08-07T09:38:04.216Z,6348
2023-08-07T09:39:20.401Z,6144
2023-08-07T09:41:34.782Z,6020
2023-08-07T09:43:09.004Z,5408
2023-08-07T09:44:25.173Z,5276
2023-08-07T09:45:41.369Z,5120
2023-08-07T09:46:57.575Z,5224
2023-08-07T09:48:12.777Z,5620
2023-08-07T09:49:28.972Z,6084
2023-08-07T09:50:45.189Z,5840
2023-08-07T09:51:43.363Z,5912
2023-08-07T09:53:17.559Z,5188
2023-08-07T09:54:33.765Z,4728
2023-08-07T09:55:49.951Z,4292
2023-08-07T09:57:06.162Z,4100
2023-08-07T09:58:22.342Z,4512
2023-08-07T09:59:38.553Z,4840
2023-08-07T10:00:54.758Z,5380
2023-08-07T10:02:10.929Z,5924
2023-08-07T10:03:27.125Z,6160
2023-08-07T10:04:43.340Z,5824
2023-08-07T10:05:59.642Z,5748
2023-08-07T10:07:15.853Z,5848
2023-08-07T10:08:32.000Z,5904
2023-08-07T10:09:48.242Z,5848
2023-08-07T10:11:04.424Z,5960
2023-08-07T10:12:02.619Z,6112
2023-08-07T10:13:36.000Z,6136
2023-08-07T10:14:53.009Z,6224
2023-08-07T10:16:09.227Z,6416
2023-08-07T10:17:07.400Z,6440
2023-08-07T10:18:41.596Z,6116
2023-08-07T10:19:57.801Z,6136
2023-08-07T10:21:13.986Z,6016
2023-08-07T10:22:30.190Z,5756
2023-08-07T10:23:46.377Z,6252
2023-08-07T10:24:44.572Z,6756
2023-08-07T10:26:18.768Z,6996
2023-08-07T10:27:34.963Z,7324
2023-08-07T10:28:51.159Z,7520
2023-08-07T10:29:49.354Z,7612
2023-08-07T10:31:05.549Z,7600
2023-08-07T10:32:21.744Z,7288
2023-08-07T10:33:56.061Z,7476
2023-08-07T10:34:54.256Z,7512
2023-08-07T10:36:28.451Z,7436
2023-08-07T10:37:26.645Z,7316
2023-08-07T10:39:00.000Z,7108
2023-08-07T10:40:17.035Z,6804
2023-08-07T10:41:33.231Z,6488
2023-08-07T10:42:49.437Z,6560
2023-08-07T10:44:05.639Z,6668
2023-08-07T10:45:21.837Z,6156
2023-08-07T10:46:38.010Z,5880
2023-08-07T10:47:54.225Z,5352
2023-08-07T10:49:10.400Z,5100
2023-08-07T10:50:08.594Z,4408
2023-08-07T10:51:42.790Z,3740
2023-08-07T10:52:58.984Z,3720
2023-08-07T10:54:15.189Z,4528
2023-08-07T10:55:31.384Z,5304
2023-08-07T10:56:47.569Z,5036
2023-08-07T10:58:03.000Z,4876
2023-08-07T10:59:19.959Z,4340
2023-08-07T11:00:36.173Z,4452
2023-08-07T11:01:52.000Z,4296
2023-08-07T11:03:08.555Z,3516
2023-08-07T11:04:24.862Z,3044
2023-08-07T11:05:41.057Z,2628
2023-08-07T11:06:57.267Z,2108
2023-08-07T11:08:13.448Z,1836
2023-08-07T11:09:29.655Z,1908
2023-08-07T11:10:45.859Z,2936
2023-08-07T11:12:02.037Z,3756
2023-08-07T11:13:18.000Z,4040
2023-08-07T11:14:34.429Z,4160
2023-08-07T11:15:32.624Z,4416
2023-08-07T11:17:06.820Z,4776
2023-08-07T11:18:23.000Z,5256
2023-08-07T11:19:39.000Z,5428
2023-08-07T11:20:55.000Z,5316
2023-08-07T11:22:11.000Z,4692
2023-08-07T11:23:27.000Z,4208
2023-08-07T11:24:44.000Z,4012
2023-08-07T11:26:00.000Z,4280
2023-08-07T11:27:16.000Z,5040
2023-08-07T11:28:32.000Z,5712
2023-08-07T11:29:48.776Z,6156
2023-08-07T11:31:04.000Z,6356
2023-08-07T11:32:21.000Z,6216
2023-08-07T11:33:37.000Z,5336
2023-08-07T11:34:53.557Z,4348
2023-08-07T11:36:09.000Z,3964
2023-08-07T11:37:25.000Z,4152
2023-08-07T11:38:42.000Z,4664
2023-08-07T11:39:58.339Z,5488
2023-08-07T11:41:14.000Z,6556
2023-08-07T11:42:30.730Z,7304
2023-08-07T11:43:46.925Z,7876
2023-08-07T11:45:03.000Z,8276
2023-08-07T11:46:19.000Z,8616
2023-08-07T11:47:35.000Z,8680
2023-08-07T11:48:51.000Z,8992
2023-08-07T11:50:07.904Z,8940
2023-08-07T11:51:24.000Z,9036
2023-08-07T11:52:40.000Z,9184
2023-08-07T11:53:56.000Z,9120
2023-08-07T11:55:12.915Z,9128
2023-08-07T11:56:29.168Z,9308
2023-08-07T11:57:45.000Z,9472
2023-08-07T11:59:01.687Z,8824
2023-08-07T12:00:17.926Z,8720
2023-08-07T12:01:16.177Z,9396
2023-08-07T12:02:50.430Z,8812
2023-08-07T12:04:06.683Z,9108
2023-08-07T12:05:22.000Z,9124
2023-08-07T12:06:39.187Z,7936
2023-08-07T12:07:55.000Z,9676
2023-08-07T12:09:10.888Z,7472
2023-08-07T12:10:27.084Z,8616
2023-08-07T12:11:43.280Z,6740
2023-08-07T12:12:59.000Z,6504
2023-08-07T12:14:15.000Z,6496
2023-08-07T12:15:31.000Z,6412
2023-08-07T12:16:48.061Z,6604
2023-08-07T12:18:04.256Z,7048
2023-08-07T12:19:20.000Z,7360
2023-08-07T12:20:36.648Z,7568
2023-08-07T12:21:52.000Z,7980
2023-08-07T12:23:09.039Z,7732
2023-08-07T12:24:25.235Z,7784
2023-08-07T12:25:41.429Z,7480
2023-08-07T12:26:57.000Z,6424
2023-08-07T12:28:13.000Z,6124
2023-08-07T12:29:30.000Z,5884
2023-08-07T12:30:46.000Z,5556
2023-08-07T12:32:02.000Z,5484
2023-08-07T12:33:18.000Z,5692
2023-08-07T12:34:34.000Z,5276
2023-08-07T12:35:32.991Z,4884
2023-08-07T12:37:07.000Z,4676
2023-08-07T12:38:05.382Z,4596
2023-08-07T12:39:39.000Z,4564
2023-08-07T12:40:55.840Z,4800
2023-08-07T12:42:12.000Z,5220
2023-08-07T12:43:10.335Z,5500
2023-08-07T12:44:44.000Z,5724
2023-08-07T12:46:00.000Z,5512
2023-08-07T12:46:59.092Z,5444
2023-08-07T12:48:33.370Z,5308
2023-08-07T12:49:49.596Z,5460
2023-08-07T12:51:05.864Z,5556
2023-08-07T12:52:22.000Z,4836
2023-08-07T12:53:38.000Z,4736
2023-08-07T12:54:54.591Z,5136
2023-08-07T12:56:10.000Z,5600
2023-08-07T12:57:26.000Z,6088
2023-08-07T12:58:43.183Z,6720
2023-08-07T12:59:59.000Z,7120
2023-08-07T13:01:15.000Z,7428
2023-08-07T13:02:31.753Z,7972
2023-08-07T13:03:48.000Z,8360
2023-08-07T13:04:46.265Z,7836
2023-08-07T13:06:20.000Z,8608
2023-08-07T13:07:18.655Z,8692
2023-08-07T13:08:52.000Z,8512
2023-08-07T13:10:09.000Z,8528
2023-08-07T13:11:25.000Z,8612
2023-08-07T13:12:23.435Z,8160
2023-08-07T13:13:57.000Z,7980
2023-08-07T13:15:13.000Z,7968
2023-08-07T13:16:30.030Z,7340
2023-08-07T13:17:45.243Z,6576
2023-08-07T13:19:01.000Z,6856
2023-08-07T13:19:59.634Z,7064
2023-08-07T13:21:33.829Z,7600
2023-08-07T13:22:50.000Z,7116
2023-08-07T13:24:06.000Z,7472
2023-08-07T13:25:22.000Z,6932
2023-08-07T13:26:38.000Z,6320
2023-08-07T13:27:54.805Z,7128
2023-08-07T13:29:11.000Z,7332
2023-08-07T13:30:27.000Z,8020
2023-08-07T13:31:43.418Z,8364
2023-08-07T13:32:59.604Z,7680
2023-08-07T13:34:14.000Z,6320
2023-08-07T13:35:31.000Z,6276
2023-08-07T13:36:47.000Z,7720
2023-08-07T13:38:03.000Z,6160
2023-08-07T13:39:19.000Z,6132
2023-08-07T13:40:35.803Z,9760
2023-08-07T13:41:51.971Z,7764
2023-08-07T13:43:08.176Z,7864
2023-08-07T13:44:24.388Z,14880
2023-08-07T13:45:22.555Z,10380
2023-08-07T13:46:55.000Z,13312
2023-08-07T13:48:11.972Z,10904
2023-08-07T13:49:28.000Z,8760
2023-08-07T13:50:26.361Z,8372
2023-08-07T13:52:00.557Z,6284
2023-08-07T13:52:58.751Z,6948
2023-08-07T13:54:32.946Z,6084
2023-08-07T13:55:49.000Z,5644
2023-08-07T13:57:05.336Z,5412
2023-08-07T13:58:21.000Z,5644
2023-08-07T13:59:37.726Z,5696
2023-08-07T14:00:53.000Z,5176
2023-08-07T14:02:10.116Z,5940
2023-08-07T14:03:26.000Z,5132
2023-08-07T14:04:42.000Z,5120
2023-08-07T14:05:40.700Z,5260
2023-08-07T14:07:14.000Z,5280
2023-08-07T14:08:31.109Z,5160
2023-08-07T14:09:47.286Z,5036
2023-08-07T14:11:03.488Z,4972
2023-08-07T14:12:18.000Z,4920
2023-08-07T14:13:34.000Z,4812
2023-08-07T14:14:51.092Z,4708
2023-08-07T14:16:07.000Z,4596
2023-08-07T14:17:23.000Z,4560
2023-08-07T14:18:21.678Z,4672
2023-08-07T14:19:55.000Z,4636
2023-08-07T14:21:12.000Z,4468
2023-08-07T14:22:28.281Z,4444
2023-08-07T14:23:25.480Z,4620
2023-08-07T14:24:59.000Z,4764
2023-08-07T14:26:15.870Z,4912
2023-08-07T14:27:32.000Z,5132
2023-08-07T14:28:48.272Z,5176
2023-08-07T14:30:04.455Z,5448
2023-08-07T14:31:20.663Z,5568
2023-08-07T14:32:36.846Z,5636
2023-08-07T14:33:35.041Z,5748
2023-08-07T14:35:09.236Z,5656
2023-08-07T14:36:25.449Z,5648
2023-08-07T14:37:41.000Z,5608
2023-08-07T14:38:57.000Z,6040
2023-08-07T14:40:14.000Z,5284
2023-08-07T14:41:12.211Z,5692
2023-08-07T14:42:46.406Z,4848
2023-08-07T14:44:02.624Z,4708
2023-08-07T14:45:18.000Z,5140
2023-08-07T14:46:34.998Z,5396
2023-08-07T14:47:51.000Z,6328
2023-08-07T14:49:06.000Z,5824
2023-08-07T14:50:22.603Z,2716
2023-08-07T14:51:38.797Z,2260
2023-08-07T14:52:54.994Z,2104
2023-08-07T14:54:11.188Z,2108
2023-08-07T14:55:27.409Z,2288
2023-08-07T14:57:01.000Z,2600
2023-08-07T14:57:59.000Z,2812
2023-08-07T14:58:57.967Z,3076
2023-08-07T15:00:32.000Z,3432
2023-08-07T15:01:48.357Z,3928
2023-08-07T15:03:04.000Z,4528
2023-08-07T15:04:20.748Z,5128
2023-08-07T15:05:36.000Z,5744
2023-08-07T15:07:10.000Z,6400
2023-08-07T15:08:09.333Z,7604
2023-08-07T15:09:25.000Z,6528
2023-08-07T15:10:41.000Z,6264
2023-08-07T15:11:39.919Z,6580
2023-08-07T15:13:14.000Z,6640
2023-08-07T15:14:30.000Z,6692
2023-08-07T15:15:46.505Z,7464
2023-08-07T15:17:02.700Z,6844
2023-08-07T15:18:18.896Z,7444
2023-08-07T15:19:17.090Z,6788
2023-08-07T15:20:51.359Z,9620
2023-08-07T15:21:49.594Z,6072
2023-08-07T15:23:23.000Z,7572
2023-08-07T15:24:40.000Z,5680
2023-08-07T15:25:56.000Z,5848
2023-08-07T15:26:54.743Z,5940
2023-08-07T15:28:28.024Z,6260
2023-08-07T15:29:44.228Z,6924
2023-08-07T15:30:59.419Z,7332
2023-08-07T15:32:15.614Z,8364
2023-08-07T15:33:31.000Z,7800
2023-08-07T15:34:48.004Z,7692
2023-08-07T15:36:04.199Z,12992
2023-08-07T15:37:02.394Z,12984
2023-08-07T15:38:36.000Z,12904
2023-08-07T15:39:52.793Z,13100
2023-08-07T15:41:08.979Z,13192
2023-08-07T15:42:25.174Z,10776
2023-08-07T15:43:41.000Z,7332
2023-08-07T15:44:57.000Z,10552
2023-08-07T15:46:13.759Z,6020
2023-08-07T15:47:11.955Z,11824
2023-08-07T15:48:46.000Z,7312
2023-08-07T15:49:44.345Z,4644
2023-08-07T15:51:18.000Z,5044
2023-08-07T15:52:16.735Z,4384
2023-08-07T15:53:50.000Z,4440
2023-08-07T15:55:07.151Z,4572
2023-08-07T15:56:23.343Z,4792
2023-08-07T15:57:39.000Z,5264
2023-08-07T15:58:55.000Z,5864
2023-08-07T16:00:11.000Z,6368
2023-08-07T16:01:28.100Z,6776
2023-08-07T16:02:44.000Z,7264
2023-08-07T16:04:00.507Z,7552
2023-08-07T16:05:16.698Z,9024
2023-08-07T16:06:32.000Z,9712
2023-08-07T16:07:31.077Z,14360
2023-08-07T16:09:05.000Z,14064
2023-08-07T16:10:21.465Z,14056
2023-08-07T16:11:37.667Z,8956
2023-08-07T16:12:53.000Z,8992
2023-08-07T16:14:10.000Z,10560
2023-08-07T16:15:08.236Z,7864
2023-08-07T16:16:42.000Z,13480
2023-08-07T16:17:58.000Z,11764
2023-08-07T16:19:14.000Z,13036
2023-08-07T16:20:13.181Z,13488
2023-08-07T16:21:47.000Z,9516
2023-08-07T16:23:03.690Z,5504
2023-08-07T16:24:18.948Z,2252
2023-08-07T16:25:35.000Z,1848
2023-08-07T16:26:51.351Z,1632
2023-08-07T16:28:07.000Z,1532
2023-08-07T16:29:23.000Z,1468
2023-08-07T16:30:39.000Z,1440
2023-08-07T16:31:56.124Z,1596
2023-08-07T16:33:11.000Z,1852
2023-08-07T16:34:09.508Z,1940
2023-08-07T16:35:43.701Z,1960
2023-08-07T16:36:59.894Z,1932
2023-08-07T16:38:16.086Z,2004
2023-08-07T16:39:14.280Z,2224
2023-08-07T16:40:48.000Z,2564
2023-08-07T16:41:46.668Z,3396
2023-08-07T16:43:20.000Z,3032
2023-08-07T16:44:37.072Z,3448
2023-08-07T16:45:53.262Z,3952
2023-08-07T16:46:51.442Z,5124
2023-08-07T16:48:25.000Z,3700
2023-08-07T16:49:41.000Z,3544
2023-08-07T16:50:58.000Z,3392
2023-08-07T16:52:14.226Z,3408
2023-08-07T16:53:30.000Z,3736
2023-08-07T16:54:45.000Z,4372
2023-08-07T16:56:01.000Z,5788
2023-08-07T16:57:00.153Z,17952
2023-08-07T16:58:34.000Z,8724
2023-08-07T16:59:50.553Z,55936
2023-08-07T17:01:06.000Z,27712
2023-08-07T17:02:22.000Z,39104
2023-08-07T17:03:39.000Z,56320
2023-08-07T17:04:55.000Z,49184
2023-08-07T17:06:11.000Z,5464
2023-08-07T17:07:27.000Z,5388
2023-08-07T17:08:43.889Z,2904
2023-08-07T17:09:42.082Z,2460
2023-08-07T17:11:16.275Z,2372
2023-08-07T17:12:14.468Z,2484
2023-08-07T17:13:48.000Z,2680
2023-08-07T17:15:04.000Z,3204
2023-08-07T17:16:21.000Z,4464
2023-08-07T17:17:37.376Z,10388
2023-08-07T17:18:35.702Z,12004
2023-08-07T17:20:09.895Z,15680